createdAt,value
2018-08-31T00:01:28.751Z,84.88
2018-08-31T00:04:35.938Z,85.57
2018-08-31T00:07:16.316Z,85.28
2018-08-31T00:12:57.849Z,85.89
2018-08-31T00:15:26.658Z,85.96
2018-08-31T00:17:55.462Z,86.23
2018-08-31T00:20:24.105Z,86.13
2018-08-31T00:22:53.002Z,85.90
2018-08-31T00:26:04.065Z,86.11
2018-08-31T00:29:49.966Z,85.56
2018-08-31T00:34:38.184Z,85.52
2018-08-31T00:39:20.450Z,85.71
2018-08-31T00:42:09.262Z,86.23
2018-08-31T00:45:49.583Z,85.47
2018-08-31T00:48:18.334Z,85.49
2018-08-31T00:50:47.463Z,85.53
2018-08-31T00:53:16.195Z,85.30
2018-08-31T00:55:44.902Z,84.99
2018-08-31T00:58:13.501Z,85.17
2018-08-31T01:00:42.209Z,85.33
2018-08-31T01:03:11.192Z,85.10
2018-08-31T01:05:39.759Z,85.03
2018-08-31T01:08:08.630Z,84.89
2018-08-31T01:10:37.166Z,85.60
2018-08-31T01:13:06.119Z,85.53
2018-08-31T01:15:34.971Z,85.06
2018-08-31T01:18:04.680Z,85.28
2018-08-31T01:20:33.343Z,85.48
2018-08-31T01:23:02.461Z,85.31
2018-08-31T01:25:33.461Z,84.99
2018-08-31T01:28:03.104Z,85.38
2018-08-31T01:30:31.673Z,85.46
2018-08-31T01:33:00.862Z,85.54
2018-08-31T01:35:29.556Z,85.67
2018-08-31T01:37:58.909Z,85.39
2018-08-31T01:40:28.085Z,85.44
2018-08-31T01:42:57.368Z,86.02
2018-08-31T01:45:26.262Z,86.15
2018-08-31T01:47:55.767Z,85.94
2018-08-31T01:50:24.655Z,86.03
2018-08-31T01:52:53.595Z,85.90
2018-08-31T01:55:27.629Z,86.10
2018-08-31T01:57:57.110Z,86.14
2018-08-31T02:00:26.378Z,85.67
2018-08-31T02:02:55.455Z,86.03
2018-08-31T02:05:24.245Z,86.10
2018-08-31T02:07:53.585Z,86.63
2018-08-31T02:10:22.239Z,86.60
2018-08-31T02:12:51.275Z,86.70
2018-08-31T02:15:20.008Z,87.03
2018-08-31T02:17:48.819Z,86.69
2018-08-31T02:20:17.834Z,87.35
2018-08-31T02:22:46.624Z,87.52
2018-08-31T02:25:15.882Z,87.95
2018-08-31T02:27:44.695Z,87.89
2018-08-31T02:30:13.378Z,88.76
2018-08-31T02:32:42.147Z,88.99
2018-08-31T02:35:11.213Z,88.50
2018-08-31T02:37:39.885Z,89.35
2018-08-31T02:40:08.641Z,89.16
2018-08-31T02:42:37.298Z,88.79
2018-08-31T02:45:06.351Z,89.66
2018-08-31T02:47:35.030Z,89.36
2018-08-31T02:50:03.982Z,89.16
2018-08-31T02:52:32.691Z,89.37
2018-08-31T02:55:01.471Z,89.49
2018-08-31T02:57:30.695Z,89.49
2018-08-31T02:59:59.414Z,89.66
2018-08-31T03:02:29.025Z,89.59
2018-08-31T03:04:57.854Z,89.76
2018-08-31T03:07:27.379Z,89.66
2018-08-31T03:09:56.107Z,90.09
2018-08-31T03:12:25.379Z,89.77
2018-08-31T03:14:53.990Z,90.21
2018-08-31T03:17:22.663Z,89.80
2018-08-31T03:19:51.290Z,89.90
2018-08-31T03:22:20.823Z,90.34
2018-08-31T03:24:49.387Z,89.76
2018-08-31T03:27:18.209Z,90.61
2018-08-31T03:29:48.144Z,90.49
2018-08-31T03:32:16.749Z,89.91
2018-08-31T03:34:45.754Z,89.66
2018-08-31T03:37:14.519Z,89.97
2018-08-31T03:39:43.806Z,90.09
2018-08-31T03:42:12.442Z,89.59
2018-08-31T03:44:41.486Z,89.88
2018-08-31T03:47:10.083Z,89.70
2018-08-31T03:49:38.801Z,89.85
2018-08-31T03:52:07.543Z,89.85
2018-08-31T03:54:36.131Z,89.78
2018-08-31T03:57:05.519Z,90.63
2018-08-31T03:59:34.313Z,90.23
2018-08-31T04:02:03.210Z,90.29
2018-08-31T04:04:31.941Z,90.20
2018-08-31T04:07:00.942Z,89.58
2018-08-31T04:09:29.733Z,89.88
2018-08-31T04:11:58.382Z,89.37
2018-08-31T04:14:27.770Z,88.86
2018-08-31T04:16:56.384Z,89.00
2018-08-31T04:19:25.479Z,88.59
2018-08-31T04:21:54.146Z,88.75
2018-08-31T04:24:24.225Z,88.54
2018-08-31T04:26:52.777Z,88.04
2018-08-31T04:29:22.173Z,87.85
2018-08-31T04:31:50.840Z,88.65
2018-08-31T04:34:20.000Z,88.29
2018-08-31T04:36:49.103Z,88.02
2018-08-31T04:39:18.105Z,88.15
2018-08-31T04:41:46.694Z,88.45
2018-08-31T04:44:15.508Z,87.99
2018-08-31T04:46:44.759Z,88.42
2018-08-31T04:49:13.463Z,88.42
2018-08-31T04:51:42.207Z,87.76
2018-08-31T04:54:10.958Z,87.92
2018-08-31T04:56:39.597Z,87.76
2018-08-31T04:59:08.583Z,88.15
2018-08-31T05:01:38.018Z,87.69
2018-08-31T05:04:06.814Z,87.62
2018-08-31T05:06:36.124Z,87.52
2018-08-31T05:09:06.943Z,87.51
2018-08-31T05:11:36.887Z,87.66
2018-08-31T05:14:05.588Z,88.04
2018-08-31T05:16:36.031Z,87.71
2018-08-31T05:19:04.891Z,87.63
2018-08-31T05:21:33.749Z,88.17
2018-08-31T05:24:02.391Z,88.20
2018-08-31T05:26:31.906Z,88.12
2018-08-31T05:29:00.604Z,87.74
2018-08-31T05:31:29.998Z,88.21
2018-08-31T05:33:58.843Z,88.01
2018-08-31T05:36:28.889Z,87.71
2018-08-31T05:38:58.045Z,88.29
2018-08-31T05:41:28.337Z,88.15
2018-08-31T05:44:03.246Z,87.71
2018-08-31T05:46:32.261Z,88.37
2018-08-31T05:49:02.128Z,87.91
2018-08-31T05:51:30.855Z,87.95
2018-08-31T05:54:00.527Z,88.49
2018-08-31T05:56:29.286Z,88.26
2018-08-31T05:58:58.488Z,88.32
2018-08-31T06:01:27.267Z,88.52
2018-08-31T06:03:55.948Z,88.30
2018-08-31T06:06:26.350Z,88.71
2018-08-31T06:08:55.088Z,88.50
2018-08-31T06:11:23.817Z,89.24
2018-08-31T06:13:52.576Z,88.57
2018-08-31T06:16:22.126Z,89.15
2018-08-31T06:18:50.955Z,88.63
2018-08-31T06:21:19.861Z,88.82
2018-08-31T06:23:48.589Z,88.42
2018-08-31T06:26:18.947Z,88.99
2018-08-31T06:28:47.605Z,88.97
2018-08-31T06:31:17.873Z,89.33
2018-08-31T06:33:46.602Z,89.08
2018-08-31T06:36:15.995Z,88.89
2018-08-31T06:38:44.586Z,89.27
2018-08-31T06:41:13.743Z,88.66
2018-08-31T06:43:42.359Z,88.62
2018-08-31T06:46:11.716Z,88.40
2018-08-31T06:48:40.326Z,88.49
2018-08-31T06:51:09.063Z,88.33
2018-08-31T06:53:37.842Z,88.06
2018-08-31T06:56:06.721Z,88.09
2018-08-31T06:58:36.191Z,87.89
2018-08-31T07:01:06.139Z,87.87
2018-08-31T07:03:36.174Z,87.64
2018-08-31T07:06:05.299Z,87.66
2018-08-31T07:08:34.234Z,87.20
2018-08-31T07:11:03.061Z,87.28
2018-08-31T07:13:31.948Z,87.41
2018-08-31T07:16:00.937Z,87.76
2018-08-31T07:18:30.626Z,87.11
2018-08-31T07:20:59.844Z,87.48
2018-08-31T07:23:28.958Z,87.35
2018-08-31T07:25:57.906Z,87.42
2018-08-31T07:28:27.091Z,87.64
2018-08-31T07:30:57.868Z,87.77
2018-08-31T07:33:26.970Z,87.37
2018-08-31T07:35:55.645Z,87.74
2018-08-31T07:38:24.307Z,87.31
2018-08-31T07:40:53.058Z,87.47
2018-08-31T07:43:22.279Z,87.21
2018-08-31T07:45:51.064Z,86.78
2018-08-31T07:48:20.107Z,86.54
2018-08-31T07:50:48.646Z,86.96
2018-08-31T07:53:17.753Z,87.09
2018-08-31T07:55:46.326Z,87.15
2018-08-31T07:58:15.205Z,86.43
2018-08-31T08:00:43.891Z,87.18
2018-08-31T08:03:12.527Z,85.97
2018-08-31T08:05:42.072Z,86.79
2018-08-31T08:08:10.769Z,86.51
2018-08-31T08:10:39.450Z,86.48
2018-08-31T08:13:08.038Z,86.82
2018-08-31T08:15:38.119Z,86.97
2018-08-31T08:18:07.082Z,86.66
2018-08-31T08:20:36.497Z,86.63
2018-08-31T08:23:05.747Z,86.07
2018-08-31T08:25:35.000Z,85.80
2018-08-31T08:28:04.753Z,86.57
2018-08-31T08:30:34.306Z,86.47
2018-08-31T08:33:03.018Z,86.56
2018-08-31T08:35:32.683Z,85.96
2018-08-31T08:38:01.390Z,86.21
2018-08-31T08:40:31.155Z,86.19
2018-08-31T08:42:59.770Z,86.67
2018-08-31T08:45:28.677Z,86.81
2018-08-31T08:47:57.638Z,86.08
2018-08-31T08:50:26.550Z,86.46
2018-08-31T08:52:55.482Z,86.37
2018-08-31T08:55:25.150Z,86.10
2018-08-31T08:57:55.436Z,85.79
2018-08-31T09:00:24.246Z,86.25
2018-08-31T09:02:53.662Z,85.74
2018-08-31T09:05:23.284Z,85.41
2018-08-31T09:07:52.466Z,85.54
2018-08-31T09:10:21.260Z,84.83
2018-08-31T09:12:51.943Z,85.32
2018-08-31T09:15:21.881Z,85.05
2018-08-31T09:17:52.326Z,84.21
2018-08-31T09:20:21.216Z,84.77
2018-08-31T09:22:49.870Z,84.22
2018-08-31T09:25:18.706Z,84.19
2018-08-31T09:27:47.986Z,84.20
2018-08-31T09:30:22.056Z,83.79
2018-08-31T09:32:50.834Z,83.63
2018-08-31T09:35:20.148Z,84.01
2018-08-31T09:37:48.983Z,83.50
2018-08-31T09:40:18.018Z,83.74
2018-08-31T09:42:46.962Z,84.21
2018-08-31T09:45:16.147Z,83.69
2018-08-31T09:47:44.821Z,83.49
2018-08-31T09:50:13.522Z,83.14
2018-08-31T09:52:42.584Z,83.18
2018-08-31T09:55:11.311Z,83.88
2018-08-31T09:57:40.362Z,84.27
2018-08-31T10:00:09.100Z,84.50
2018-08-31T10:02:38.040Z,84.61
2018-08-31T10:05:08.305Z,85.05
2018-08-31T10:07:37.747Z,84.82
2018-08-31T10:10:06.656Z,85.28
2018-08-31T10:12:35.791Z,85.60
2018-08-31T10:15:05.258Z,85.79
2018-08-31T10:17:35.723Z,85.58
2018-08-31T10:20:04.391Z,85.24
2018-08-31T10:22:33.665Z,85.53
2018-08-31T10:25:02.294Z,85.51
2018-08-31T10:27:31.343Z,85.48
2018-08-31T10:30:00.801Z,85.78
2018-08-31T10:32:29.632Z,84.99
2018-08-31T10:34:58.346Z,85.03
2018-08-31T10:37:27.503Z,85.34
2018-08-31T10:39:56.126Z,84.99
2018-08-31T10:42:24.812Z,85.35
2018-08-31T10:44:53.536Z,84.52
2018-08-31T10:47:22.259Z,84.61
2018-08-31T10:49:51.102Z,84.16
2018-08-31T10:52:19.938Z,83.08
2018-08-31T10:54:48.646Z,83.65
2018-08-31T10:57:17.310Z,83.39
2018-08-31T10:59:46.430Z,83.37
2018-08-31T11:02:15.246Z,82.86
2018-08-31T11:04:44.035Z,82.17
2018-08-31T11:07:12.781Z,82.51
2018-08-31T11:09:41.622Z,81.75
2018-08-31T11:12:10.340Z,81.80
2018-08-31T11:14:39.287Z,80.95
2018-08-31T11:17:08.735Z,81.03
2018-08-31T11:19:37.354Z,80.89
2018-08-31T11:22:06.807Z,81.52
2018-08-31T11:24:35.404Z,81.75
2018-08-31T11:27:04.483Z,81.22
2018-08-31T11:29:33.634Z,81.78
2018-08-31T11:32:02.739Z,80.83
2018-08-31T11:34:31.447Z,80.38
2018-08-31T11:37:00.353Z,80.72
2018-08-31T11:39:28.975Z,80.65
2018-08-31T11:41:58.228Z,80.82
2018-08-31T11:44:27.652Z,80.90
2018-08-31T11:46:58.986Z,80.40
2018-08-31T11:49:27.626Z,80.83
2018-08-31T11:51:56.781Z,80.98
2018-08-31T11:54:25.961Z,81.41
2018-08-31T11:56:54.971Z,81.15
2018-08-31T11:59:23.690Z,81.62
2018-08-31T12:01:52.528Z,81.97
2018-08-31T12:04:21.305Z,81.54
2018-08-31T12:06:50.154Z,81.26
2018-08-31T12:09:18.818Z,80.28
2018-08-31T12:11:47.645Z,80.63
2018-08-31T12:14:16.383Z,79.74
2018-08-31T12:16:45.374Z,80.17
2018-08-31T12:19:14.981Z,80.20
2018-08-31T12:21:43.639Z,80.45
2018-08-31T12:24:12.486Z,80.99
2018-08-31T12:26:41.017Z,80.60
2018-08-31T12:29:10.007Z,79.84
2018-08-31T12:31:38.611Z,80.97
2018-08-31T12:34:07.480Z,80.22
2018-08-31T12:36:36.335Z,80.70
2018-08-31T12:39:08.867Z,81.32
2018-08-31T12:41:37.630Z,81.07
2018-08-31T12:44:06.783Z,80.83
2018-08-31T12:46:35.398Z,80.77
2018-08-31T12:49:04.408Z,81.67
2018-08-31T12:51:33.093Z,81.55
2018-08-31T12:54:01.950Z,81.56
2018-08-31T12:56:31.826Z,82.44
2018-08-31T12:59:00.549Z,81.25
2018-08-31T13:01:29.666Z,81.55
2018-08-31T13:03:58.434Z,82.24
2018-08-31T13:06:27.273Z,80.63
2018-08-31T13:08:56.676Z,81.57
2018-08-31T13:11:25.874Z,80.81
2018-08-31T13:13:54.557Z,81.71
2018-08-31T13:16:23.598Z,81.64
2018-08-31T13:18:52.337Z,81.09
2018-08-31T13:21:21.334Z,81.33
2018-08-31T13:23:50.082Z,81.33
2018-08-31T13:26:19.231Z,80.60
2018-08-31T13:28:47.899Z,81.37
2018-08-31T13:31:16.847Z,81.33
2018-08-31T13:33:45.604Z,79.89
2018-08-31T13:36:14.174Z,80.16
2018-08-31T13:38:43.049Z,78.77
2018-08-31T13:41:12.770Z,77.87
2018-08-31T13:43:41.486Z,77.10
2018-08-31T13:46:10.235Z,78.03
2018-08-31T13:48:39.494Z,78.22
2018-08-31T13:51:09.204Z,78.21
2018-08-31T13:53:37.982Z,77.97
2018-08-31T13:56:06.713Z,78.25
2018-08-31T13:58:35.686Z,78.25
2018-08-31T14:01:04.234Z,78.15
2018-08-31T14:03:33.447Z,79.06
2018-08-31T14:06:02.192Z,78.75
2018-08-31T14:08:31.004Z,78.52
2018-08-31T14:10:59.606Z,77.91
2018-08-31T14:13:28.214Z,77.98
2018-08-31T14:15:57.234Z,78.21
2018-08-31T14:18:25.822Z,77.24
2018-08-31T14:20:54.615Z,76.76
2018-08-31T14:23:23.150Z,77.62
2018-08-31T14:25:51.950Z,76.82
2018-08-31T14:28:20.686Z,77.19
2018-08-31T14:30:49.791Z,76.40
2018-08-31T14:33:19.074Z,75.46
2018-08-31T14:35:47.918Z,76.38
2018-08-31T14:38:18.944Z,76.74
2018-08-31T14:40:49.205Z,76.14
2018-08-31T14:43:17.954Z,76.42
2018-08-31T14:45:46.726Z,76.61
2018-08-31T14:48:15.927Z,76.85
2018-08-31T14:50:44.424Z,76.03
2018-08-31T14:53:14.210Z,75.50
2018-08-31T14:55:44.026Z,75.94
2018-08-31T14:58:13.010Z,76.20
2018-08-31T15:00:41.783Z,75.94
2018-08-31T15:03:10.861Z,75.38
2018-08-31T15:05:39.606Z,75.57
2018-08-31T15:08:09.194Z,75.48
2018-08-31T15:10:37.981Z,75.89
2018-08-31T15:13:06.757Z,76.10
2018-08-31T15:15:35.334Z,76.45
2018-08-31T15:18:04.238Z,76.82
2018-08-31T15:20:33.341Z,76.15
2018-08-31T15:23:01.961Z,76.01
2018-08-31T15:25:30.684Z,76.05
2018-08-31T15:27:59.332Z,75.77
2018-08-31T15:30:28.529Z,75.98
2018-08-31T15:32:57.112Z,76.78
2018-08-31T15:35:26.514Z,77.43
2018-08-31T15:37:55.110Z,77.63
2018-08-31T15:40:24.100Z,77.13
2018-08-31T15:42:53.430Z,78.26
2018-08-31T15:45:23.891Z,78.10
2018-08-31T15:47:52.597Z,78.49
2018-08-31T15:50:23.367Z,78.83
2018-08-31T15:52:51.950Z,78.52
2018-08-31T15:55:22.074Z,78.25
2018-08-31T15:57:50.646Z,78.28
2018-08-31T16:00:19.747Z,78.09
2018-08-31T16:02:48.506Z,77.91
2018-08-31T16:05:17.115Z,78.17
2018-08-31T16:07:45.774Z,77.82
2018-08-31T16:10:14.316Z,79.03
2018-08-31T16:12:43.041Z,79.20
2018-08-31T16:15:11.654Z,80.48
2018-08-31T16:17:42.502Z,80.66
2018-08-31T16:20:11.274Z,81.04
2018-08-31T16:22:41.522Z,81.00
2018-08-31T16:25:10.400Z,81.72
2018-08-31T16:27:39.955Z,81.41
2018-08-31T16:30:08.622Z,81.66
2018-08-31T16:32:39.506Z,81.41
2018-08-31T16:35:08.362Z,81.56
2018-08-31T16:37:37.167Z,81.59
2018-08-31T16:40:06.094Z,81.68
2018-08-31T16:42:35.299Z,81.93
2018-08-31T16:45:03.962Z,81.50
2018-08-31T16:47:33.938Z,81.78
2018-08-31T16:50:02.550Z,82.33
2018-08-31T16:52:31.870Z,82.43
2018-08-31T16:55:01.182Z,82.60
2018-08-31T16:57:30.449Z,82.31
2018-08-31T16:59:59.249Z,83.06
2018-08-31T17:02:28.445Z,82.73
2018-08-31T17:04:57.123Z,83.05
2018-08-31T17:07:27.659Z,83.50
2018-08-31T17:09:56.235Z,83.03
2018-08-31T17:12:25.436Z,82.19
2018-08-31T17:14:54.612Z,82.47
2018-08-31T17:17:23.635Z,83.01
2018-08-31T17:19:52.280Z,83.08
2018-08-31T17:22:21.005Z,83.53
2018-08-31T17:24:49.557Z,83.58
2018-08-31T17:27:23.910Z,83.85
2018-08-31T17:29:52.831Z,84.03
2018-08-31T17:32:26.570Z,83.02
2018-08-31T17:35:01.705Z,83.75
2018-08-31T17:37:33.502Z,83.21
2018-08-31T17:40:02.222Z,83.54
2018-08-31T17:42:36.556Z,83.23
2018-08-31T17:45:05.281Z,83.24
2018-08-31T17:47:34.658Z,83.36
2018-08-31T17:50:03.495Z,83.03
2018-08-31T17:52:33.974Z,83.57
2018-08-31T17:55:02.755Z,83.38
2018-08-31T17:57:33.394Z,82.93
2018-08-31T18:00:02.319Z,82.75
2018-08-31T18:02:31.991Z,83.13
2018-08-31T18:05:01.919Z,82.60
2018-08-31T18:07:31.512Z,83.34
2018-08-31T18:10:00.234Z,83.30
2018-08-31T18:12:29.189Z,82.81
2018-08-31T18:14:58.213Z,82.74
2018-08-31T18:17:29.329Z,82.68
2018-08-31T18:19:59.582Z,82.78
2018-08-31T18:22:28.303Z,82.87
2018-08-31T18:24:59.666Z,83.04
2018-08-31T18:27:33.450Z,83.15
2018-08-31T18:30:04.867Z,83.14
2018-08-31T18:32:40.898Z,82.84
2018-08-31T18:35:12.704Z,82.77
2018-08-31T18:37:42.829Z,83.42
2018-08-31T18:40:15.003Z,83.46
2018-08-31T18:42:46.336Z,82.99
2018-08-31T18:45:18.268Z,83.68
2018-08-31T18:47:48.505Z,83.08
2018-08-31T18:50:28.628Z,83.33
2018-08-31T18:53:00.609Z,83.44
2018-08-31T18:55:31.996Z,83.29
2018-08-31T18:58:03.557Z,82.98
2018-08-31T19:00:35.278Z,83.42
2018-08-31T19:03:07.290Z,84.08
2018-08-31T19:05:37.477Z,83.63
2018-08-31T19:08:09.749Z,84.05
2018-08-31T19:10:42.632Z,83.87
2018-08-31T19:13:12.116Z,83.97
2018-08-31T19:15:42.902Z,84.40
2018-08-31T19:18:12.629Z,83.83
2018-08-31T19:20:43.277Z,83.90
2018-08-31T19:23:16.077Z,84.15
2018-08-31T19:25:49.348Z,83.96
2018-08-31T19:28:18.898Z,83.87
2018-08-31T19:30:52.048Z,83.60
2018-08-31T19:33:21.590Z,83.57
2018-08-31T19:35:58.274Z,84.11
2018-08-31T19:38:31.497Z,83.57
2018-08-31T19:41:01.436Z,83.46
2018-08-31T19:43:30.110Z,83.48
2018-08-31T19:46:09.498Z,83.54
2018-08-31T19:48:43.644Z,83.99
2018-08-31T19:51:16.578Z,83.58
2018-08-31T19:53:47.693Z,83.52
2018-08-31T19:58:57.478Z,83.63
2018-08-31T20:01:28.101Z,83.72
2018-08-31T20:03:58.838Z,83.62
2018-08-31T20:06:28.583Z,84.01
2018-08-31T20:08:58.785Z,83.94
2018-08-31T20:11:28.234Z,83.78
2018-08-31T20:13:57.415Z,83.86
2018-08-31T20:16:26.849Z,84.08
2018-08-31T20:18:56.643Z,83.77
2018-08-31T20:21:25.352Z,84.01
2018-08-31T20:23:54.210Z,84.29
2018-08-31T20:26:22.822Z,83.74
2018-08-31T20:28:51.836Z,83.79
2018-08-31T20:31:20.585Z,83.51
2018-08-31T20:33:49.437Z,84.28
2018-08-31T20:36:18.367Z,83.82
2018-08-31T20:38:47.127Z,84.84
2018-08-31T20:41:16.043Z,84.67
2018-08-31T20:43:44.665Z,84.70
2018-08-31T20:46:13.748Z,84.19
2018-08-31T20:48:42.526Z,84.50
2018-08-31T20:51:11.686Z,84.36
2018-08-31T20:53:40.318Z,84.39
2018-08-31T20:56:09.381Z,84.62
2018-08-31T20:58:38.266Z,84.33
2018-08-31T21:01:06.988Z,84.00
2018-08-31T21:03:35.762Z,84.04
2018-08-31T21:06:04.714Z,83.83
2018-08-31T21:08:33.320Z,84.21
2018-08-31T21:11:02.162Z,84.09
2018-08-31T21:13:31.204Z,83.80
2018-08-31T21:16:00.196Z,84.02
2018-08-31T21:18:28.982Z,83.28
2018-08-31T21:20:57.586Z,83.95
2018-08-31T21:23:26.524Z,84.30
2018-08-31T21:25:56.209Z,84.58
2018-08-31T21:28:25.227Z,84.53
2018-08-31T21:30:53.837Z,84.10
2018-08-31T21:33:22.711Z,84.49
2018-08-31T21:35:51.438Z,84.46
2018-08-31T21:38:20.158Z,83.84
2018-08-31T21:40:49.954Z,83.98
2018-08-31T21:43:18.779Z,84.32
2018-08-31T21:45:48.616Z,84.16
2018-08-31T21:48:17.434Z,84.38
2018-08-31T21:50:46.806Z,84.48
2018-08-31T21:53:15.359Z,84.21
2018-08-31T21:55:44.219Z,84.36
2018-08-31T21:58:13.071Z,84.20
2018-08-31T22:00:43.814Z,84.27
2018-08-31T22:03:13.863Z,84.44
2018-08-31T22:05:47.110Z,84.21
2018-08-31T22:08:17.840Z,84.07
2018-08-31T22:10:46.714Z,84.31
2018-08-31T22:13:15.768Z,84.04
2018-08-31T22:15:44.548Z,84.33
2018-08-31T22:18:13.562Z,84.14
2018-08-31T22:20:42.162Z,84.22
2018-08-31T22:23:10.938Z,84.62
2018-08-31T22:25:40.074Z,84.30
2018-08-31T22:28:08.909Z,85.08
2018-08-31T22:30:38.098Z,84.55
2018-08-31T22:33:06.847Z,84.93
2018-08-31T22:35:35.964Z,85.07
2018-08-31T22:38:04.833Z,84.79
2018-08-31T22:40:33.748Z,84.91
2018-08-31T22:43:02.505Z,85.01
2018-08-31T22:45:31.472Z,84.74
2018-08-31T22:48:00.026Z,85.11
2018-08-31T22:50:28.727Z,85.54
2018-08-31T22:52:57.294Z,84.96
2018-08-31T22:55:25.990Z,85.38
2018-08-31T22:57:55.025Z,85.19
2018-08-31T23:00:23.790Z,85.37
2018-08-31T23:02:53.162Z,85.52
2018-08-31T23:05:22.123Z,85.41
2018-08-31T23:07:56.230Z,85.56
2018-08-31T23:10:25.010Z,85.69
2018-08-31T23:12:53.704Z,85.75
2018-08-31T23:15:22.539Z,85.33
2018-08-31T23:17:51.728Z,85.52
2018-08-31T23:20:21.150Z,85.46
2018-08-31T23:22:50.587Z,85.73
2018-08-31T23:25:24.459Z,85.50
2018-08-31T23:27:53.082Z,85.42
2018-08-31T23:30:21.846Z,85.74
2018-08-31T23:32:50.590Z,84.79
2018-08-31T23:35:19.658Z,85.37
2018-08-31T23:37:48.433Z,85.31
2018-08-31T23:40:17.202Z,85.09
2018-08-31T23:42:46.698Z,85.20
2018-08-31T23:45:15.363Z,84.65
2018-08-31T23:47:44.946Z,84.92
2018-08-31T23:50:13.704Z,84.95
2018-08-31T23:52:42.710Z,84.99
2018-08-31T23:55:11.398Z,84.79
2018-08-31T23:57:40.421Z,84.95
